Wixom, Michigan
Current Conditions -  °F | °C
As of 9:53 AM on Sunday 23 Nov 2014 (Local Time) from KPTK Reporting Station
Light Rain Light Rain  
Wind Chill: 41°   Ceiling: 800
Heat Index: 46°   Visibility: 7mi
Dew Point: 43°   Wind: 9mph
Humidity: 89%   Direction: 180°S
Pressure: 29.92"   Gusts: NA
Location:  42.52°N, 83.53°W
Report Text: KPTK 231453Z 18008KT 7SM -RA BKN008 OVC036 08/06 A2992 RMK AO2 RAB21 SLP134 P0000 60000 T00780061 53003
Loading
Personal Weather Stations






























Interactive Weather Map New forecast layout! Learn more

10-Day Weather Forecast

Advertisements
Track Severe Weather on mobile